Hlavní strana
METAR-TAF:

METAR-TAF

Letiště :

Joensuu, Finsko

zeměpisná šířka: 62-40N, zeměpisná délka: 029-38E, výška: 119 m

Aktuální stav počasí

Zpráva byla vytvořena před 35 minutami, v 14:50 UTC
Západoseverozápadní vítr 9 kt
Teplota 1°C
Vlhkost vzduchu 93%
Tlak 1015 hPa
Viditelnost 10 km a více
Zataženo ve výšce 600 ft

METAR: EFJO 281450Z AUTO 30009KT 9999 OVC006 01/M00 Q1015

Čas: 17:25 (15:25 UTC)


TAF: chybějící

Stav a předpovědi počasí z více než 4 000 letišť (zprávy METAR a TAF).

Červené a žluté tečky na mapě představují dostupné meteorologické stanice.

Když kurzor umístíte na tečku, zobrazí se název stanice.

Pak kliknutím zobrazíte stav a předpověď počasí.

Chcete-li změnit mapu, kliknutím na zelené tlačítko se znaménkem +mapu přiblížíte, kliknutím na zelené tlačítko se znaménkem – mapu oddálíte a kliknutím na zelené šipky přejdete na sousední mapy.


METAR-TAF: